Time;durP1;ratioP1;P1;durP2;ratioP2;P2;SDS_P1;SDS_P2;PMS_P1;PMS_P2;Temp;Humidity;BMP_temperature;BMP_pressure;BME280_temperature;BME280_humidity;BME280_pressure;Samples;Min_cycle;Max_cycle;Signal;HPM_P1;HPM_P2
2023/05/13 00:01:52;;;;;;;9.83;7.33;;;;;;;13.53;89.42;101832.84;5260289;28;20026;-66
2023/05/13 00:04:23;;;;;;;9.93;8.50;;;;;;;13.57;89.56;101831.06;5265042;28;20097;-67
2023/05/13 00:06:55;;;;;;;9.27;7.90;;;;;;;13.55;89.48;101832.84;5265314;28;20431;-66
2023/05/13 00:09:26;;;;;;;7.87;7.07;;;;;;;13.47;89.17;101827.66;5251348;28;20473;-66
2023/05/13 00:11:58;;;;;;;8.90;7.70;;;;;;;13.43;90.23;101824.19;5265121;28;20480;-66
2023/05/13 00:14:30;;;;;;;11.90;7.67;;;;;;;13.47;89.72;101836.38;5265118;28;20093;-66
2023/05/13 00:17:03;;;;;;;9.05;6.93;;;;;;;13.48;89.26;101819.78;5297135;28;20045;-66
2023/05/13 00:19:35;;;;;;;11.25;7.43;;;;;;;13.39;88.16;101825.09;5297004;28;20040;-66
2023/05/13 00:22:06;;;;;;;10.27;7.57;;;;;;;13.34;88.87;101826.88;5265230;28;20037;-65
2023/05/13 00:24:37;;;;;;;11.10;7.07;;;;;;;13.25;89.34;101819.94;5264587;28;20037;-67
2023/05/13 00:27:10;;;;;;;8.03;7.23;;;;;;;13.19;89.46;101825.22;5265105;28;20072;-68
2023/05/13 00:29:41;;;;;;;9.77;7.43;;;;;;;13.21;89.39;101826.06;5264483;28;20043;-68
2023/05/13 00:32:12;;;;;;;12.63;6.63;;;;;;;13.12;89.22;101819.16;5264766;28;20395;-65
2023/05/13 00:34:44;;;;;;;10.33;7.73;;;;;;;13.10;89.88;101814.81;5264488;28;20068;-66
2023/05/13 00:37:15;;;;;;;8.93;6.83;;;;;;;13.04;89.43;101814.84;5264354;28;20029;-66
2023/05/13 00:39:47;;;;;;;9.17;7.47;;;;;;;12.98;89.83;101821.00;5280039;28;20037;-66
2023/05/13 00:42:18;;;;;;;7.67;6.87;;;;;;;12.95;89.23;101821.88;5297203;28;20036;-65
2023/05/13 00:44:50;;;;;;;10.83;6.90;;;;;;;12.93;89.64;101828.88;5264572;28;20033;-65
2023/05/13 00:47:22;;;;;;;9.35;7.18;;;;;;;12.99;89.17;101822.72;5264526;28;20032;-66
2023/05/13 00:49:53;;;;;;;11.70;6.60;;;;;;;12.96;89.03;101833.25;5264504;28;20490;-66
2023/05/13 00:52:24;;;;;;;11.73;7.30;;;;;;;12.97;90.14;101828.84;5264682;28;20476;-66
2023/05/13 00:54:57;;;;;;;11.50;6.97;;;;;;;12.90;90.07;101833.25;5264382;28;20028;-65
2023/05/13 00:57:29;;;;;;;8.25;6.57;;;;;;;12.88;90.13;101824.53;5250189;28;20032;-66
2023/05/13 01:00:01;;;;;;;9.77;7.20;;;;;;;12.89;89.65;101834.13;5264328;28;20048;-66
2023/05/13 01:02:41;;;;;;;7.28;6.55;;;;;;;12.84;89.95;101828.06;5279481;28;20025;-67
2023/05/13 01:05:21;;;;;;;8.98;6.88;;;;;;;12.83;88.84;101831.53;5264348;28;20044;-66
2023/05/13 01:08:08;;;;;;;10.70;6.45;;;;;;;12.88;88.08;101830.66;5250940;28;20057;-66
2023/05/13 01:10:50;;;;;;;8.20;7.07;;;;;;;12.76;89.72;101826.34;5264067;28;20036;-65
2023/05/13 01:13:30;;;;;;;8.23;6.55;;;;;;;12.66;88.64;101824.66;5264341;28;20452;-65
2023/05/13 01:16:28;;;;;;;10.50;7.20;;;;;;;12.65;89.60;101828.13;5258377;28;20373;-66
2023/05/13 01:19:10;;;;;;;11.27;7.28;;;;;;;12.57;88.68;101819.47;5258367;28;20469;-66
2023/05/13 01:21:50;;;;;;;8.63;6.88;;;;;;;12.55;90.54;101827.31;5263919;28;20372;-66
2023/05/13 01:24:22;;;;;;;8.98;6.47;;;;;;;12.48;89.90;101817.78;5264098;28;20032;-67
2023/05/13 01:26:53;;;;;;;9.60;7.50;;;;;;;12.39;90.90;101812.56;5296097;28;20083;-65
2023/05/13 01:29:24;;;;;;;8.03;6.90;;;;;;;12.31;89.95;101823.03;5263610;28;20158;-66
2023/05/13 01:31:57;;;;;;;8.67;6.80;;;;;;;12.28;89.90;101820.44;5263680;28;20037;-66
2023/05/13 01:34:30;;;;;;;8.52;6.90;;;;;;;12.27;89.58;101820.44;5263468;28;20029;-66
2023/05/13 01:37:03;;;;;;;9.32;6.82;;;;;;;12.14;90.68;101820.50;5262495;28;20036;-66
2023/05/13 01:39:37;;;;;;;9.32;7.32;;;;;;;12.15;90.46;101822.22;5263518;28;20037;-65
2023/05/13 01:42:09;;;;;;;10.07;7.03;;;;;;;12.17;89.07;101824.84;5263567;28;20040;-66
2023/05/13 01:44:40;;;;;;;9.90;6.70;;;;;;;12.11;89.82;101819.66;5263308;28;20029;-66
2023/05/13 01:47:12;;;;;;;8.97;6.73;;;;;;;12.07;90.32;101823.13;5263434;28;20033;-65
2023/05/13 01:49:43;;;;;;;8.80;7.20;;;;;;;12.00;89.41;101823.13;5263598;28;20029;-66
2023/05/13 01:52:14;;;;;;;11.23;7.07;;;;;;;11.94;90.15;101828.38;5263363;28;20079;-65
2023/05/13 01:54:46;;;;;;;9.73;6.63;;;;;;;11.92;91.26;101827.50;5263073;28;20094;-65
2023/05/13 01:57:17;;;;;;;7.80;6.80;;;;;;;11.92;89.87;101832.72;5249171;28;20044;-67
2023/05/13 01:59:48;;;;;;;12.20;7.83;;;;;;;11.86;89.74;101833.59;5263019;28;20037;-65
2023/05/13 02:02:20;;;;;;;9.47;6.97;;;;;;;11.85;89.86;101831.00;5262971;28;20017;-67
2023/05/13 02:04:51;;;;;;;9.70;7.23;;;;;;;11.83;89.73;101830.09;5262673;28;20043;-66
2023/05/13 02:07:22;;;;;;;11.23;7.43;;;;;;;11.83;89.94;101831.00;5262512;28;20550;-66
2023/05/13 02:09:58;;;;;;;10.77;7.73;;;;;;;11.76;90.70;101828.38;5262849;28;20036;-66
2023/05/13 02:12:29;;;;;;;8.25;6.68;;;;;;;11.75;90.60;101826.63;5257838;28;20033;-68
2023/05/13 02:15:01;;;;;;;11.30;7.27;;;;;;;11.67;91.23;101831.84;5272790;28;20083;-66
2023/05/13 02:17:32;;;;;;;9.73;7.17;;;;;;;11.60;91.54;101824.91;5245107;28;20032;-66
2023/05/13 02:20:04;;;;;;;10.17;7.10;;;;;;;11.54;91.01;101823.16;5287047;28;20044;-65
2023/05/13 02:22:35;;;;;;;9.90;7.28;;;;;;;11.59;92.36;101823.16;5262686;28;20028;-65
2023/05/13 02:25:07;;;;;;;8.70;7.70;;;;;;;11.50;92.11;101827.50;5262823;28;20036;-67
2023/05/13 02:27:39;;;;;;;7.93;7.13;;;;;;;11.45;92.30;101828.38;5261568;28;20119;-66
2023/05/13 02:30:11;;;;;;;9.80;7.00;;;;;;;11.54;92.02;101833.59;5262831;28;20440;-67
2023/05/13 02:32:43;;;;;;;9.05;8.02;;;;;;;11.40;92.47;101830.09;5262674;28;20059;-66
2023/05/13 02:35:14;;;;;;;10.20;7.60;;;;;;;11.42;92.66;101833.59;5262472;28;20052;-65
2023/05/13 02:37:46;;;;;;;9.00;7.77;;;;;;;11.32;93.60;101827.50;5262457;28;20372;-66
2023/05/13 02:40:17;;;;;;;9.90;7.53;;;;;;;11.29;93.61;101828.38;5262715;28;20116;-66
2023/05/13 02:42:49;;;;;;;8.73;7.60;;;;;;;11.23;93.85;101832.72;5262643;28;20060;-67
2023/05/13 02:45:20;;;;;;;11.85;7.93;;;;;;;11.22;92.93;101823.13;5262641;28;20029;-66
2023/05/13 02:47:52;;;;;;;13.00;7.33;;;;;;;11.17;93.25;101823.13;5262534;28;20029;-69
2023/05/13 02:50:23;;;;;;;13.00;8.20;;;;;;;11.11;94.08;101824.00;5262567;28;20107;-66
2023/05/13 02:52:54;;;;;;;13.43;8.40;;;;;;;11.06;93.71;101819.63;5262531;28;20033;-66
2023/05/13 02:55:26;;;;;;;14.67;8.57;;;;;;;11.06;94.00;101819.63;5262544;28;20113;-66
2023/05/13 02:57:57;;;;;;;10.40;8.20;;;;;;;11.02;93.79;101818.75;5262374;28;20085;-65
2023/05/13 03:00:28;;;;;;;11.17;8.40;;;;;;;11.02;94.38;101818.75;5294365;28;20037;-66
2023/05/13 03:03:00;;;;;;;13.73;8.23;;;;;;;10.92;94.67;101812.66;5262337;28;20029;-66
2023/05/13 03:05:31;;;;;;;12.33;8.27;;;;;;;10.89;94.71;101812.63;5294740;28;20138;-67
2023/05/13 03:08:03;;;;;;;12.13;8.57;;;;;;;10.84;94.97;101824.81;5261963;28;20364;-66
2023/05/13 03:10:35;;;;;;;11.73;8.00;;;;;;;10.84;94.57;101816.13;5262541;28;20495;-67
2023/05/13 03:13:06;;;;;;;9.53;8.10;;;;;;;10.77;94.60;101817.84;5262288;28;20036;-66
2023/05/13 03:15:37;;;;;;;11.40;8.00;;;;;;;10.70;95.08;101816.06;5262452;28;20029;-67
2023/05/13 03:18:09;;;;;;;11.67;8.07;;;;;;;10.66;95.78;101816.91;5294542;28;20115;-67
2023/05/13 03:20:40;;;;;;;11.33;8.70;;;;;;;10.61;96.05;101816.03;5262416;28;20037;-67
2023/05/13 03:23:11;;;;;;;10.90;8.40;;;;;;;10.66;96.00;101823.03;5262147;28;20477;-67
2023/05/13 03:25:43;;;;;;;9.77;8.77;;;;;;;10.53;95.89;101827.31;5262324;28;20413;-67
2023/05/13 03:28:14;;;;;;;9.90;7.90;;;;;;;10.51;96.06;101822.94;5261938;28;20118;-66
2023/05/13 03:30:45;;;;;;;15.33;9.57;;;;;;;10.49;96.20;101825.53;5262227;28;20096;-66
2023/05/13 03:33:17;;;;;;;10.47;8.93;;;;;;;10.45;96.04;101818.59;5261899;28;20064;-66
2023/05/13 03:35:48;;;;;;;21.10;8.80;;;;;;;10.51;94.98;101830.75;5294163;28;20053;-66
2023/05/13 03:38:20;;;;;;;9.63;8.47;;;;;;;10.45;96.40;101836.84;5261983;28;20025;-65
2023/05/13 03:40:51;;;;;;;10.37;7.90;;;;;;;10.40;95.68;101838.56;5262068;28;20033;-66
2023/05/13 03:43:22;;;;;;;13.30;8.73;;;;;;;10.36;95.86;101834.19;5262125;28;20127;-66
2023/05/13 03:45:54;;;;;;;10.57;8.90;;;;;;;10.41;96.40;101837.69;5262082;28;20029;-67
2023/05/13 03:48:25;;;;;;;9.07;8.13;;;;;;;10.33;96.86;101836.78;5261932;28;20040;-67
2023/05/13 03:50:57;;;;;;;9.80;7.83;;;;;;;10.28;97.09;101833.25;5261909;28;20035;-66
2023/05/13 03:53:28;;;;;;;10.93;8.00;;;;;;;10.28;96.72;101841.91;5262042;28;20033;-65
2023/05/13 03:55:59;;;;;;;9.43;7.90;;;;;;;10.14;97.48;101834.03;5262101;28;20029;-64
2023/05/13 03:58:31;;;;;;;11.93;8.27;;;;;;;10.13;97.59;101841.84;5261706;28;20071;-67
2023/05/13 04:01:02;;;;;;;11.87;8.63;;;;;;;10.05;97.78;101833.97;5295814;28;20025;-66
2023/05/13 04:03:34;;;;;;;9.70;8.40;;;;;;;10.06;97.64;101845.25;5297848;28;20437;-66
2023/05/13 04:06:05;;;;;;;11.93;8.67;;;;;;;9.99;98.14;101840.00;5264935;28;20112;-66
2023/05/13 04:08:37;;;;;;;10.63;9.50;;;;;;;9.91;99.27;101844.31;5265675;28;20036;-67
2023/05/13 04:11:08;;;;;;;10.07;9.00;;;;;;;9.89;99.95;101842.56;5265166;28;20025;-66
2023/05/13 04:13:39;;;;;;;12.67;10.47;;;;;;;9.89;100.00;101845.16;5265161;28;20056;-67
2023/05/13 04:16:11;;;;;;;12.00;9.87;;;;;;;9.90;100.00;101842.56;5264692;28;20392;-66
2023/05/13 04:18:42;;;;;;;11.53;10.00;;;;;;;9.92;100.00;101847.78;5263787;28;20029;-68
2023/05/13 04:21:13;;;;;;;13.97;9.47;;;;;;;9.92;99.82;101834.75;5263734;28;20040;-66
2023/05/13 04:23:45;;;;;;;11.57;9.30;;;;;;;10.00;99.48;101846.13;5264896;28;20061;-66
2023/05/13 04:26:16;;;;;;;12.10;9.27;;;;;;;10.00;99.33;101841.75;5265324;28;20052;-66
2023/05/13 04:28:47;;;;;;;12.17;9.93;;;;;;;9.96;99.20;101845.19;5264649;28;20039;-65
2023/05/13 04:31:20;;;;;;;13.10;9.97;;;;;;;10.02;99.03;101849.59;5264937;28;20547;-67
2023/05/13 04:33:52;;;;;;;11.32;10.07;;;;;;;10.04;99.30;101855.69;5264823;28;20470;-65
2023/05/13 04:36:23;;;;;;;11.30;9.20;;;;;;;10.04;99.00;101845.25;5264416;28;20056;-66
2023/05/13 04:38:55;;;;;;;13.07;9.57;;;;;;;10.10;98.55;101850.50;5265009;28;20041;-65
2023/05/13 04:41:26;;;;;;;20.27;10.63;;;;;;;10.09;98.60;101848.75;5264653;28;20033;-66
2023/05/13 04:43:58;;;;;;;15.03;10.27;;;;;;;10.12;98.72;101850.53;5264629;28;20128;-66
2023/05/13 04:46:29;;;;;;;9.97;8.63;;;;;;;10.15;98.16;101855.75;5264607;28;20098;-66
2023/05/13 04:49:00;;;;;;;12.70;10.50;;;;;;;10.17;98.48;101854.88;5264937;28;20032;-66
2023/05/13 04:51:32;;;;;;;12.83;9.27;;;;;;;10.21;97.86;101863.63;5264755;28;20112;-66
2023/05/13 04:54:03;;;;;;;10.80;9.77;;;;;;;10.24;97.47;101858.41;5264401;28;20124;-66
2023/05/13 04:56:35;;;;;;;11.23;9.90;;;;;;;10.29;97.17;101861.03;5264842;28;20025;-67
2023/05/13 04:59:08;;;;;;;10.63;9.53;;;;;;;10.33;96.96;101857.63;5296644;28;20115;-66
2023/05/13 05:01:40;;;;;;;10.95;9.73;;;;;;;10.34;97.07;101860.25;5263954;28;20267;-66
2023/05/13 05:04:11;;;;;;;10.93;9.73;;;;;;;10.36;97.05;101857.63;5264490;28;20078;-66
2023/05/13 05:06:43;;;;;;;14.15;9.70;;;;;;;10.45;96.52;101865.53;5263732;28;20029;-66
2023/05/13 05:09:14;;;;;;;10.37;9.37;;;;;;;10.49;96.22;101866.41;5264236;28;20087;-67
2023/05/13 05:11:46;;;;;;;10.97;9.80;;;;;;;10.56;95.90;101870.75;5263166;28;20025;-67
2023/05/13 05:14:17;;;;;;;12.93;9.27;;;;;;;10.57;96.17;101868.16;5263813;28;20037;-66
2023/05/13 05:16:48;;;;;;;12.13;9.53;;;;;;;10.67;95.38;101881.25;5264199;28;20025;-65
2023/05/13 05:19:22;;;;;;;12.63;9.87;;;;;;;10.73;95.01;101883.88;5264034;28;20033;-65
2023/05/13 05:21:54;;;;;;;11.75;9.48;;;;;;;10.77;95.02;101883.06;5263845;28;20162;-66
2023/05/13 05:24:25;;;;;;;17.87;10.00;;;;;;;10.83;95.10;101879.56;5264232;28;20439;-66
2023/05/13 05:26:56;;;;;;;13.43;9.73;;;;;;;10.85;94.28;101878.72;5263837;28;20029;-66
2023/05/13 05:29:28;;;;;;;12.57;10.13;;;;;;;10.94;94.99;101877.88;5264022;28;20026;-65
2023/05/13 05:31:59;;;;;;;13.63;9.80;;;;;;;10.99;94.54;101883.13;5264961;28;20033;-65
2023/05/13 05:34:31;;;;;;;14.10;9.67;;;;;;;11.06;94.17;101883.16;5262185;28;20163;-66
2023/05/13 05:37:02;;;;;;;11.33;9.87;;;;;;;11.11;94.19;101891.00;5295471;28;20365;-65
2023/05/13 05:39:34;;;;;;;13.43;9.80;;;;;;;11.16;94.08;101898.81;5278744;28;20036;-65
2023/05/13 05:42:06;;;;;;;14.17;9.90;;;;;;;11.14;93.91;101885.78;5263198;28;20025;-66
2023/05/13 05:44:37;;;;;;;;;;;;;;;11.24;93.66;101897.09;5296180;28;20055;-66
2023/05/13 05:47:09;;;;;;;11.38;10.25;;;;;;;11.26;93.69;101900.59;5263372;28;19995;-66
2023/05/13 05:49:41;;;;;;;12.70;10.90;;;;;;;11.29;93.28;101895.38;5263427;28;20028;-67
2023/05/13 05:52:12;;;;;;;15.37;10.90;;;;;;;11.37;94.19;101909.31;5263415;28;20037;-67
2023/05/13 05:54:43;;;;;;;14.50;10.13;;;;;;;11.47;92.58;101905.84;5263496;28;20041;-65
2023/05/13 05:57:15;;;;;;;12.87;10.47;;;;;;;11.54;92.82;101904.09;5263268;28;20033;-65
2023/05/13 05:59:46;;;;;;;14.63;11.10;;;;;;;11.61;92.49;101905.00;5264232;28;20036;-66
2023/05/13 06:02:18;;;;;;;13.87;10.87;;;;;;;11.64;93.28;101907.59;5262052;28;20052;-65
2023/05/13 06:04:49;;;;;;;12.33;10.27;;;;;;;11.67;92.13;101900.66;5263369;28;20032;-66
2023/05/13 06:07:21;;;;;;;13.13;10.70;;;;;;;11.74;92.10;101906.75;5262772;28;20166;-66
2023/05/13 06:09:53;;;;;;;13.53;10.27;;;;;;;11.78;92.15;101905.00;5262742;28;20076;-67
2023/05/13 06:12:25;;;;;;;;;;;;;;;11.84;92.14;101915.44;5262204;28;20349;-65
2023/05/13 06:14:56;;;;;;;13.80;11.00;;;;;;;11.79;91.72;101914.59;5262905;28;19919;-66
2023/05/13 06:17:27;;;;;;;17.50;12.40;;;;;;;11.87;92.30;101915.44;5263004;28;20039;-66
2023/05/13 06:19:59;;;;;;;12.73;11.43;;;;;;;11.84;92.05;101915.44;5262785;28;20472;-65
2023/05/13 06:22:30;;;;;;;15.67;11.83;;;;;;;11.82;93.24;101914.59;5263030;28;20032;-66
2023/05/13 06:25:02;;;;;;;14.37;11.50;;;;;;;11.91;92.09;101921.53;5262442;28;20095;-66
2023/05/13 06:27:35;;;;;;;13.00;11.50;;;;;;;11.99;92.04;101917.22;5262758;28;20033;-65
2023/05/13 06:30:07;;;;;;;12.90;11.52;;;;;;;12.06;92.38;101918.97;5262580;28;20037;-66
2023/05/13 06:32:38;;;;;;;14.20;12.13;;;;;;;12.10;92.11;101912.84;5262668;28;20067;-67
2023/05/13 06:35:09;;;;;;;13.07;11.70;;;;;;;12.18;91.09;101931.16;5262328;28;20057;-66
2023/05/13 06:37:41;;;;;;;16.13;11.60;;;;;;;12.18;91.29;101925.91;5260633;28;20033;-66
2023/05/13 06:40:12;;;;;;;14.70;12.90;;;;;;;12.20;91.56;101924.16;5262763;28;20352;-65
2023/05/13 06:42:44;;;;;;;13.27;11.37;;;;;;;12.32;91.27;101923.28;5262519;28;20421;-66
2023/05/13 06:45:15;;;;;;;12.43;11.17;;;;;;;12.42;91.37;101924.13;5262528;28;20029;-66
2023/05/13 06:47:47;;;;;;;16.50;11.97;;;;;;;12.59;90.34;101927.59;5262346;28;20028;-65
2023/05/13 06:50:18;;;;;;;13.80;12.10;;;;;;;12.83;89.02;101930.97;5262444;28;20465;-65
2023/05/13 06:52:50;;;;;;;12.83;11.50;;;;;;;13.00;89.46;101931.78;5262441;28;20056;-66
2023/05/13 06:55:21;;;;;;;12.70;11.07;;;;;;;13.21;87.12;101927.31;5255839;28;20362;-66
2023/05/13 06:57:52;;;;;;;12.20;11.07;;;;;;;13.23;86.30;101928.19;5260027;28;20381;-65
2023/05/13 07:00:24;;;;;;;12.13;10.83;;;;;;;13.25;86.48;101935.16;5261579;28;20029;-66
2023/05/13 07:02:55;;;;;;;20.20;11.10;;;;;;;13.20;85.69;101936.03;5260029;28;20037;-65
2023/05/13 07:05:27;;;;;;;11.73;10.53;;;;;;;13.31;85.41;101936.84;5260825;28;20510;-66
2023/05/13 07:07:58;;;;;;;16.87;11.30;;;;;;;13.56;85.04;101940.25;5261491;28;20033;-66
2023/05/13 07:10:30;;;;;;;11.40;10.30;;;;;;;13.69;84.98;101933.16;5260099;28;20108;-64
2023/05/13 07:13:01;;;;;;;14.83;10.90;;;;;;;13.69;84.16;101935.78;5262067;28;20029;-66
2023/05/13 07:15:33;;;;;;;13.27;10.47;;;;;;;13.67;82.73;101929.69;5274268;28;20093;-66
2023/05/13 07:18:04;;;;;;;11.17;10.07;;;;;;;13.60;84.56;101935.84;5272454;28;20047;-65
2023/05/13 07:20:36;;;;;;;14.50;11.17;;;;;;;13.51;84.52;101947.25;5247393;28;20037;-66
2023/05/13 07:23:07;;;;;;;14.27;10.73;;;;;;;13.49;85.87;101936.78;5258708;28;20090;-68
2023/05/13 07:25:39;;;;;;;13.83;11.03;;;;;;;13.60;86.06;101941.94;5261059;28;20059;-66
2023/05/13 07:28:10;;;;;;;14.23;12.07;;;;;;;13.72;85.04;101935.75;5260483;28;20037;-66
2023/05/13 07:30:41;;;;;;;13.90;11.47;;;;;;;13.85;84.01;101928.69;5258086;28;20090;-66
2023/05/13 07:33:13;;;;;;;14.53;11.77;;;;;;;13.94;84.44;101920.75;5260324;28;20132;-67
2023/05/13 07:35:44;;;;;;;13.07;11.10;;;;;;;14.18;82.84;101926.63;5262538;28;20436;-65
2023/05/13 07:38:16;;;;;;;12.17;10.87;;;;;;;14.58;84.15;101936.72;5262096;28;20036;-66
2023/05/13 07:40:48;;;;;;;14.90;10.80;;;;;;;14.80;81.45;101923.38;5263328;28;20071;-65
2023/05/13 07:43:22;;;;;;;17.73;10.70;;;;;;;15.06;81.27;101920.44;5263329;28;20392;-65
2023/05/13 07:45:54;;;;;;;15.68;10.85;;;;;;;15.18;80.13;101933.38;5264178;28;20383;-65
2023/05/13 07:48:27;;;;;;;13.03;11.27;;;;;;;15.21;80.11;101933.31;5263956;28;20116;-66
2023/05/13 07:50:58;;;;;;;21.00;11.18;;;;;;;15.30;78.91;101934.97;5264635;28;20037;-66
2023/05/13 07:53:30;;;;;;;12.27;9.97;;;;;;;15.42;78.69;101942.69;5264514;28;20569;-65
2023/05/13 07:56:02;;;;;;;12.37;10.77;;;;;;;15.42;77.97;101931.28;5263774;28;20033;-63
2023/05/13 07:58:33;;;;;;;12.10;10.88;;;;;;;15.55;79.61;101937.25;5263927;28;20040;-66
2023/05/13 08:01:04;;;;;;;11.07;9.10;;;;;;;15.63;76.66;101931.00;5264695;28;20029;-66
2023/05/13 08:03:36;;;;;;;12.53;9.87;;;;;;;15.79;77.42;101939.53;5264886;28;20037;-66
2023/05/13 08:06:07;;;;;;;10.47;9.33;;;;;;;15.81;76.93;101942.13;5265353;28;20037;-68
2023/05/13 08:08:39;;;;;;;10.53;9.43;;;;;;;15.80;75.20;101943.88;5264248;28;20033;-67
2023/05/13 08:11:11;;;;;;;14.10;9.53;;;;;;;15.84;74.70;101942.06;5280117;28;20033;-66
2023/05/13 08:13:42;;;;;;;13.37;9.43;;;;;;;16.07;75.14;101940.81;5263480;28;20124;-65
2023/05/13 08:16:13;;;;;;;14.03;9.93;;;;;;;16.48;76.69;101945.31;5265342;28;20032;-66
2023/05/13 08:18:45;;;;;;;12.50;9.97;;;;;;;16.52;72.58;101935.63;5263878;28;20040;-65
2023/05/13 08:21:16;;;;;;;11.73;8.53;;;;;;;16.75;71.12;101936.03;5264985;28;20372;-66
2023/05/13 08:23:49;;;;;;;11.57;9.00;;;;;;;17.02;69.37;101943.44;5264389;28;20059;-65
2023/05/13 08:26:21;;;;;;;12.93;8.82;;;;;;;17.33;69.79;101950.66;5264133;28;20397;-66
2023/05/13 08:28:52;;;;;;;11.70;8.27;;;;;;;17.23;65.83;101944.75;5264389;28;20116;-65
2023/05/13 08:31:24;;;;;;;15.33;8.10;;;;;;;16.85;66.85;101939.38;5264707;28;20439;-66
2023/05/13 08:33:55;;;;;;;12.40;7.60;;;;;;;16.79;67.58;101944.72;5264601;28;20036;-65
2023/05/13 08:36:27;;;;;;;12.40;8.20;;;;;;;16.76;68.64;101939.53;5264111;28;20053;-65
2023/05/13 08:38:58;;;;;;;11.65;9.00;;;;;;;17.08;68.81;101940.66;5264157;28;20037;-66
2023/05/13 08:41:33;;;;;;;10.93;8.30;;;;;;;17.29;67.89;101934.94;5265041;28;20388;-66
2023/05/13 08:44:06;;;;;;;8.95;8.00;;;;;;;17.43;66.37;101942.50;5264115;28;20514;-66
2023/05/13 08:46:43;;;;;;;12.02;8.23;;;;;;;17.48;68.02;101940.66;5264849;28;20113;-67
2023/05/13 08:49:14;;;;;;;12.05;8.40;;;;;;;17.62;68.11;101948.22;5279284;28;20468;-66
2023/05/13 08:51:46;;;;;;;12.27;9.97;;;;;;;17.80;68.60;101940.75;5264656;28;20078;-66
2023/05/13 08:54:17;;;;;;;11.23;10.03;;;;;;;17.89;68.05;101940.59;5263836;28;20473;-65
2023/05/13 08:56:49;;;;;;;14.07;9.77;;;;;;;17.79;67.66;101942.53;5264189;28;20029;-67
2023/05/13 08:59:20;;;;;;;10.87;9.27;;;;;;;17.73;68.00;101942.69;5263804;28;20552;-65
2023/05/13 09:01:52;;;;;;;10.83;9.73;;;;;;;17.88;67.55;101945.91;5263414;28;20032;-66
2023/05/13 09:04:24;;;;;;;14.02;9.27;;;;;;;17.99;67.56;101939.44;5263398;28;20033;-65
2023/05/13 09:06:56;;;;;;;18.13;10.13;;;;;;;18.23;66.93;101937.06;5263357;28;20037;-66
2023/05/13 09:09:28;;;;;;;12.82;10.40;;;;;;;18.23;66.00;101939.72;5262940;28;20029;-66
2023/05/13 09:11:59;;;;;;;12.00;9.48;;;;;;;18.35;66.99;101930.59;5263576;28;20040;-66
2023/05/13 09:14:31;;;;;;;12.93;8.67;;;;;;;18.45;64.78;101940.00;5261599;28;20385;-66
2023/05/13 09:17:03;;;;;;;12.35;8.55;;;;;;;18.61;65.39;101934.28;5263659;28;20437;-66
2023/05/13 09:19:35;;;;;;;11.40;9.85;;;;;;;18.68;64.32;101925.28;5263526;28;20107;-67
2023/05/13 09:22:16;;;;;;;9.87;8.87;;;;;;;18.52;61.44;101935.41;5264279;28;20437;-65
2023/05/13 09:24:54;;;;;;;12.63;8.73;;;;;;;18.74;63.42;101933.00;5263376;28;20522;-66
2023/05/13 09:27:47;;;;;;;14.27;9.38;;;;;;;18.95;64.60;101927.16;5262986;28;20068;-65
2023/05/13 09:30:20;;;;;;;10.43;9.02;;;;;;;19.04;62.99;101926.00;5263509;28;20078;-66
2023/05/13 09:33:03;;;;;;;;;;;;;;;19.39;62.25;101917.91;5264343;28;20392;-66
2023/05/13 09:35:37;;;;;;;10.75;8.15;;;;;;;19.22;61.46;101921.06;5262678;28;19924;-66
2023/05/13 09:38:14;;;;;;;10.52;8.60;;;;;;;19.34;61.33;101928.63;5262989;28;20045;-66
2023/05/13 09:40:53;;;;;;;12.80;8.93;;;;;;;19.43;61.75;101923.06;5263601;28;20037;-65
2023/05/13 09:43:26;;;;;;;13.77;8.55;;;;;;;19.73;59.86;101916.81;5263009;28;20068;-67
2023/05/13 09:46:02;;;;;;;12.20;9.40;;;;;;;20.48;60.45;101916.00;5262735;28;20098;-66
2023/05/13 09:48:35;;;;;;;9.98;8.88;;;;;;;21.47;55.53;101919.28;5262911;28;20071;-66
2023/05/13 09:51:07;;;;;;;;;;;;;;;22.87;50.56;101919.53;5263519;28;20508;-66
2023/05/13 09:53:39;;;;;;;10.40;8.50;;;;;;;23.32;49.59;101917.44;5259041;28;20019;-69
2023/05/13 09:56:10;;;;;;;;;;;;;;;25.03;46.50;101919.25;5264479;28;20377;-66
2023/05/13 09:58:51;;;;;;;11.60;7.90;;;;;;;24.81;43.28;101919.59;5261751;28;19916;-65
2023/05/13 10:01:25;;;;;;;11.40;7.97;;;;;;;24.66;42.73;101906.16;5261448;28;20539;-66
2023/05/13 10:03:58;;;;;;;9.25;8.32;;;;;;;24.82;41.99;101915.97;5260268;28;20075;-66
2023/05/13 10:06:29;;;;;;;11.07;8.73;;;;;;;24.65;41.88;101907.09;5261867;28;20102;-67
2023/05/13 10:09:02;;;;;;;10.82;7.93;;;;;;;25.47;40.83;101908.75;5256389;28;20033;-67
2023/05/13 10:11:38;;;;;;;13.90;7.53;;;;;;;25.44;40.09;101903.59;5242438;28;20098;-66
2023/05/13 10:14:10;;;;;;;12.02;7.13;;;;;;;26.55;39.35;101902.31;5252456;28;20634;-67
2023/05/13 10:16:41;;;;;;;;;;;;;;;28.43;38.25;101906.91;5262783;28;20114;-67
2023/05/13 10:19:13;;;;;;;8.57;6.40;;;;;;;27.77;36.61;101899.78;5262098;28;19920;-66
2023/05/13 10:21:46;;;;;;;10.02;6.90;;;;;;;27.68;37.30;101902.22;5259695;28;20079;-66
2023/05/13 10:24:20;;;;;;;8.20;5.53;;;;;;;27.59;36.44;101899.19;5261293;28;20040;-66
2023/05/13 10:26:52;;;;;;;14.50;6.07;;;;;;;28.29;33.90;101891.78;5262389;28;20044;-66
2023/05/13 10:29:24;;;;;;;;;;;;;;;29.97;34.85;101898.28;5259352;28;20445;-66
2023/05/13 10:31:56;;;;;;;9.50;6.15;;;;;;;28.37;32.34;101892.13;5261938;28;20446;-66
2023/05/13 10:34:30;;;;;;;7.88;5.28;;;;;;;28.12;34.10;101896.50;5261580;28;20156;-67
2023/05/13 10:37:39;;;;;;;10.40;6.20;;;;;;;29.09;34.51;101886.91;5260614;28;20080;-67
2023/05/13 10:40:30;;;;;;;12.40;5.55;;;;;;;29.45;33.75;101901.28;5261120;28;20020;-66
2023/05/13 10:43:10;;;;;;;7.60;5.20;;;;;;;29.69;33.44;101895.00;5260203;28;20083;-65
2023/05/13 10:45:50;;;;;;;9.40;5.78;;;;;;;29.67;31.60;101896.94;5262043;28;20032;-66
2023/05/13 10:48:22;;;;;;;9.25;5.32;;;;;;;28.64;30.28;101889.31;5261942;28;20056;-66
2023/05/13 10:51:00;;;;;;;;;;;;;;;30.68;30.59;101882.78;5262737;28;20173;-67
2023/05/13 10:53:42;;;;;;;8.77;5.20;;;;;;;29.72;30.96;101889.41;5261767;28;20419;-67
2023/05/13 10:56:18;;;;;;;9.77;4.68;;;;;;;30.08;30.49;101879.47;5262198;28;20051;-67
2023/05/13 10:59:03;;;;;;;9.65;4.40;;;;;;;31.25;30.26;101886.22;5261743;28;20371;-66
2023/05/13 11:01:46;;;;;;;9.00;4.50;;;;;;;31.02;27.96;101882.72;5261944;28;20040;-65
2023/05/13 11:04:20;;;;;;;11.27;5.13;;;;;;;30.52;27.32;101871.56;5261233;28;20029;-66
2023/05/13 11:06:51;;;;;;;7.63;4.20;;;;;;;30.43;26.87;101873.16;5262263;28;20353;-65
2023/05/13 11:09:22;;;;;;;5.00;3.97;;;;;;;30.96;28.59;101877.88;5261610;28;20025;-67
2023/05/13 11:11:58;;;;;;;7.32;4.03;;;;;;;30.57;26.36;101865.81;5265754;28;20025;-66
2023/05/13 11:14:30;;;;;;;9.32;4.40;;;;;;;30.15;26.60;101871.78;5265656;28;20417;-65
2023/05/13 11:17:03;;;;;;;10.07;4.35;;;;;;;30.20;27.59;101872.25;5266254;28;20028;-65
2023/05/13 11:19:45;;;;;;;6.97;3.95;;;;;;;30.64;25.06;101850.84;5265686;28;20037;-67
2023/05/13 11:22:22;;;;;;;7.20;3.53;;;;;;;31.43;25.67;101850.63;5265959;28;20590;-65
2023/05/13 11:25:06;;;;;;;6.60;3.65;;;;;;;32.49;25.99;101845.97;5265570;28;20058;-67
2023/05/13 11:27:40;;;;;;;6.32;3.92;;;;;;;32.57;23.62;101851.53;5266164;28;20479;-67
2023/05/13 11:30:31;;;;;;;10.45;3.40;;;;;;;33.41;24.24;101855.66;5265715;28;20036;-66
2023/05/13 11:33:07;;;;;;;8.65;3.50;;;;;;;33.73;19.62;101851.75;5297988;28;20127;-67
2023/05/13 11:35:38;;;;;;;7.53;3.70;;;;;;;33.51;21.02;101845.66;5280577;28;20053;-67
2023/05/13 11:38:22;;;;;;;7.50;4.43;;;;;;;34.15;22.12;101848.66;5265142;28;20116;-67
2023/05/13 11:40:55;;;;;;;13.32;3.47;;;;;;;33.89;20.39;101853.84;5266054;28;20039;-66
2023/05/13 11:43:26;;;;;;;6.25;3.38;;;;;;;34.14;21.46;101842.38;5264931;28;20082;-67
2023/05/13 11:45:59;;;;;;;7.57;4.15;;;;;;;34.75;19.48;101841.97;5266530;28;20040;-66